Time;durP1;ratioP1;P1;durP2;ratioP2;P2;SDS_P1;SDS_P2;PMS_P1;PMS_P2;Temp;Humidity;BMP_temperature;BMP_pressure;BME280_temperature;BME280_humidity;BME280_pressure;Samples;Min_cycle;Max_cycle;Signal;HPM_P1;HPM_P2
2022/11/27 00:02:02;;;;;;;17.95;11.38;;;-4.20;99.90;;;;;;4994864;28;20392;-79
2022/11/27 00:04:28;;;;;;;19.00;11.88;;;-4.20;99.90;;;;;;4994579;28;20023;-80
2022/11/27 00:06:54;;;;;;;19.23;11.25;;;-4.20;99.90;;;;;;4995012;28;20026;-78
2022/11/27 00:09:20;;;;;;;25.38;13.65;;;-4.20;99.90;;;;;;4992521;28;20034;-78
2022/11/27 00:11:46;;;;;;;17.25;9.25;;;-4.20;99.90;;;;;;4994504;28;20038;-80
2022/11/27 00:14:15;;;;;;;18.63;13.18;;;-4.20;99.90;;;;;;4994590;28;20494;-79
2022/11/27 00:16:41;;;;;;;21.13;13.18;;;-4.20;99.90;;;;;;4990735;28;20038;-80
2022/11/27 00:19:07;;;;;;;21.77;13.80;;;-4.30;99.90;;;;;;4993248;28;20030;-79
2022/11/27 00:21:34;;;;;;;18.00;10.88;;;-4.30;99.90;;;;;;4987880;28;20030;-78
2022/11/27 00:24:02;;;;;;;24.17;12.30;;;-4.30;99.90;;;;;;4994501;28;20054;-78
2022/11/27 00:26:29;;;;;;;16.42;9.43;;;-4.40;99.90;;;;;;4995266;28;20034;-79
2022/11/27 00:28:55;;;;;;;18.08;11.05;;;-4.30;99.90;;;;;;4994758;28;20015;-77
2022/11/27 00:31:28;;;;;;;15.98;10.98;;;-4.30;99.90;;;;;;4995572;28;20051;-77
2022/11/27 00:33:55;;;;;;;19.02;10.93;;;-4.20;99.90;;;;;;4995640;28;20455;-77
2022/11/27 00:36:22;;;;;;;16.75;11.57;;;-4.20;99.90;;;;;;4992601;28;20031;-78
2022/11/27 00:38:48;;;;;;;19.80;14.40;;;-4.20;99.90;;;;;;4993329;28;20022;-79
2022/11/27 00:41:20;;;;;;;15.98;9.20;;;-4.30;99.90;;;;;;4990600;28;20034;-79
2022/11/27 00:43:46;;;;;;;23.00;11.55;;;-4.30;99.90;;;;;;5004378;28;20089;-78
2022/11/27 00:46:13;;;;;;;19.33;12.95;;;-4.30;99.90;;;;;;4994548;28;20037;-78
2022/11/27 00:48:40;;;;;;;17.95;10.25;;;-4.30;99.90;;;;;;4994644;28;20068;-78
2022/11/27 00:51:08;;;;;;;18.65;12.20;;;-4.30;99.90;;;;;;4997428;28;20424;-79
2022/11/27 00:53:34;;;;;;;18.20;10.82;;;-4.30;99.90;;;;;;4991813;28;20173;-79
2022/11/27 00:56:00;;;;;;;22.77;12.70;;;-4.40;99.90;;;;;;4994342;28;20492;-79
2022/11/27 00:58:27;;;;;;;25.77;15.00;;;-4.30;99.90;;;;;;4994044;28;20506;-78
2022/11/27 01:01:20;;;;;;;23.87;14.13;;;-4.30;99.90;;;;;;4993627;28;20026;-79
2022/11/27 01:03:47;;;;;;;21.65;13.13;;;-4.30;99.90;;;;;;4992516;28;20425;-79
2022/11/27 01:06:13;;;;;;;20.48;12.77;;;-4.30;99.90;;;;;;4991802;28;20030;-78
2022/11/27 01:08:40;;;;;;;22.77;9.47;;;-4.20;99.90;;;;;;4993881;28;20030;-79
2022/11/27 01:11:06;;;;;;;11.95;8.93;;;-4.20;99.90;;;;;;4993641;28;20306;-79
2022/11/27 01:13:35;;;;;;;21.27;13.23;;;-4.30;99.90;;;;;;4993789;28;20515;-77
2022/11/27 01:16:12;;;;;;;19.25;11.07;;;-4.30;99.90;;;;;;4993371;28;20053;-78
2022/11/27 01:18:40;;;;;;;21.20;14.27;;;-4.30;99.90;;;;;;4993464;28;20476;-78
2022/11/27 01:21:07;;;;;;;19.15;11.75;;;-4.40;99.90;;;;;;4990056;28;20058;-80
2022/11/27 01:23:33;;;;;;;17.00;8.13;;;-4.30;99.90;;;;;;4994807;28;20026;-80
2022/11/27 01:26:04;;;;;;;20.33;12.75;;;-4.40;99.90;;;;;;5000557;28;20029;-79
2022/11/27 01:28:30;;;;;;;20.65;14.73;;;-4.40;99.90;;;;;;4992047;28;20076;-79
2022/11/27 01:30:57;;;;;;;23.95;14.85;;;-4.40;99.90;;;;;;4993365;28;20443;-81
2022/11/27 01:33:25;;;;;;;21.90;13.38;;;-4.40;99.90;;;;;;4994862;28;20113;-80
2022/11/27 01:36:05;;;;;;;22.85;12.70;;;-4.30;99.90;;;;;;4990865;28;20443;-77
2022/11/27 01:38:31;;;;;;;17.05;11.35;;;-4.30;99.90;;;;;;4980752;28;20062;-77
2022/11/27 01:40:59;;;;;;;17.57;11.70;;;-4.40;99.90;;;;;;4993250;28;20026;-78
2022/11/27 01:43:38;;;;;;;20.42;12.88;;;-4.40;99.90;;;;;;4991667;28;20494;-78
2022/11/27 01:46:22;;;;;;;24.45;12.13;;;-4.40;99.90;;;;;;4993998;28;20031;-75
2022/11/27 01:48:49;;;;;;;20.60;13.05;;;-4.40;99.90;;;;;;4995667;28;20026;-78
2022/11/27 01:51:16;;;;;;;21.05;13.63;;;-4.30;99.90;;;;;;4995261;28;20070;-78
2022/11/27 01:53:42;;;;;;;22.35;11.73;;;-4.30;99.90;;;;;;4992986;28;20384;-78
2022/11/27 01:56:08;;;;;;;17.73;10.88;;;-4.30;99.90;;;;;;4992930;28;20442;-78
2022/11/27 01:58:35;;;;;;;18.50;10.88;;;-4.30;99.90;;;;;;4992755;28;20542;-77
2022/11/27 02:01:01;;;;;;;19.45;12.07;;;-4.30;99.90;;;;;;4993163;28;20115;-78
2022/11/27 02:03:27;;;;;;;27.67;14.20;;;-4.30;99.90;;;;;;4994527;28;20030;-79
2022/11/27 02:05:52;;;;;;;21.65;14.30;;;-4.30;99.90;;;;;;4992959;28;20022;-78
2022/11/27 02:08:18;;;;;;;19.48;12.13;;;-4.30;99.90;;;;;;4991208;28;20030;-79
2022/11/27 02:11:09;;;;;;;20.55;11.25;;;-4.40;99.90;;;;;;4992495;28;20068;-77
2022/11/27 02:13:40;;;;;;;21.80;13.95;;;-4.40;99.90;;;;;;4992469;28;20026;-78
2022/11/27 02:16:20;;;;;;;19.55;11.98;;;-4.40;99.90;;;;;;4991442;28;20026;-78
2022/11/27 02:18:59;;;;;;;20.95;14.20;;;-4.30;99.90;;;;;;4992546;28;20376;-78
2022/11/27 02:21:35;;;;;;;23.45;13.38;;;-4.30;99.90;;;;;;4984380;28;20038;-79
2022/11/27 02:24:22;;;;;;;25.92;14.73;;;-4.30;99.90;;;;;;4991978;28;20046;-78
2022/11/27 02:27:09;;;;;;;18.35;11.30;;;-4.30;99.90;;;;;;4992406;28;20022;-78
2022/11/27 02:29:35;;;;;;;;;;;-4.30;99.90;;;;;;4978435;28;20527;-78
2022/11/27 02:32:42;;;;;;;18.45;13.18;;;-4.30;99.90;;;;;;4991473;28;19918;-78
2022/11/27 02:35:25;;;;;;;28.00;13.07;;;-4.30;99.90;;;;;;4965211;28;20089;-78
2022/11/27 02:37:54;;;;;;;23.60;11.90;;;-4.30;99.90;;;;;;4980658;28;20019;-77
2022/11/27 02:40:20;;;;;;;24.52;14.27;;;-4.20;99.90;;;;;;4975389;28;20618;-77
2022/11/27 02:43:00;;;;;;;23.02;14.38;;;-4.20;99.90;;;;;;4971255;28;20154;-79
2022/11/27 02:45:41;;;;;;;21.15;13.27;;;-4.20;99.90;;;;;;4953482;28;20026;-79
2022/11/27 02:48:09;;;;;;;23.65;15.50;;;-4.20;99.90;;;;;;4970708;28;20027;-78
2022/11/27 02:50:38;;;;;;;24.35;16.23;;;-4.20;99.90;;;;;;4970573;28;20026;-79
2022/11/27 02:53:11;;;;;;;22.15;10.20;;;-4.20;99.90;;;;;;4970481;28;20038;-79
2022/11/27 02:55:39;;;;;;;20.52;11.20;;;-4.20;99.90;;;;;;4971070;28;20045;-79
2022/11/27 02:58:10;;;;;;;20.98;11.82;;;-4.20;99.90;;;;;;4973678;28;20027;-78
2022/11/27 03:00:37;;;;;;;22.13;11.27;;;-4.20;99.90;;;;;;4970795;28;20112;-79
2022/11/27 03:03:07;;;;;;;17.35;11.30;;;-4.20;99.90;;;;;;4970624;28;20086;-79
2022/11/27 03:05:38;;;;;;;19.77;9.38;;;-4.20;99.90;;;;;;4979178;28;20034;-79
2022/11/27 03:08:16;;;;;;;16.25;9.15;;;-4.10;99.90;;;;;;4992808;28;20452;-77
2022/11/27 03:10:56;;;;;;;21.10;11.52;;;-4.10;99.90;;;;;;4991181;28;20130;-77
2022/11/27 03:13:23;;;;;;;14.55;9.77;;;-4.10;99.90;;;;;;4987955;28;20065;-78
2022/11/27 03:16:11;;;;;;;19.97;9.50;;;-4.10;99.90;;;;;;4992108;28;20023;-80
2022/11/27 03:18:43;;;;;;;16.27;8.93;;;-4.10;99.90;;;;;;4992173;28;20411;-78
2022/11/27 03:21:13;;;;;;;15.68;12.18;;;-4.10;99.90;;;;;;4992049;28;20617;-78
2022/11/27 03:23:39;;;;;;;17.77;11.10;;;-4.10;99.90;;;;;;4992151;28;20025;-77
2022/11/27 03:26:04;;;;;;;12.98;9.40;;;-4.10;99.90;;;;;;4991888;28;20026;-78
2022/11/27 03:28:31;;;;;;;14.00;7.95;;;-4.10;99.90;;;;;;4991111;28;20396;-77
2022/11/27 03:30:57;;;;;;;15.10;11.07;;;-4.00;99.90;;;;;;4990752;28;20026;-78
2022/11/27 03:33:23;;;;;;;12.55;10.23;;;-4.00;99.90;;;;;;4992390;28;20049;-78
2022/11/27 03:35:49;;;;;;;18.38;10.98;;;-4.00;99.90;;;;;;4991478;28;20131;-78
2022/11/27 03:38:15;;;;;;;18.98;9.82;;;-4.00;99.90;;;;;;4991967;28;20065;-78
2022/11/27 03:41:05;;;;;;;15.70;9.05;;;-4.00;99.90;;;;;;4992254;28;20031;-77
2022/11/27 03:43:39;;;;;;;15.65;10.82;;;-3.90;99.90;;;;;;4992055;28;20073;-79
2022/11/27 03:46:12;;;;;;;16.25;10.13;;;-3.80;99.90;;;;;;4995600;28;20449;-79
2022/11/27 03:49:20;;;;;;;12.98;8.20;;;-3.80;99.90;;;;;;4995645;28;20455;-77
2022/11/27 03:51:57;;;;;;;19.73;12.43;;;-3.90;99.90;;;;;;4996185;28;20495;-77
2022/11/27 03:54:41;;;;;;;15.45;11.10;;;-3.80;99.90;;;;;;4996457;28;20027;-79
2022/11/27 03:57:18;;;;;;;14.38;10.43;;;-3.80;99.90;;;;;;4992454;28;20022;-78
2022/11/27 03:59:46;;;;;;;16.50;11.75;;;-3.80;99.90;;;;;;4994891;28;20071;-77
2022/11/27 04:02:14;;;;;;;17.50;10.93;;;-3.80;99.90;;;;;;4995089;28;20029;-80
2022/11/27 04:04:39;;;;;;;11.68;8.95;;;-3.80;99.90;;;;;;4995006;28;20014;-78
2022/11/27 04:07:05;;;;;;;17.45;10.82;;;-3.80;99.90;;;;;;4994863;28;20026;-79
2022/11/27 04:09:31;;;;;;;21.25;11.93;;;-3.80;99.90;;;;;;4994650;28;20034;-77
2022/11/27 04:11:57;;;;;;;15.68;9.00;;;-3.80;99.90;;;;;;4994976;28;20030;-81
2022/11/27 04:14:23;;;;;;;15.52;10.38;;;-3.80;99.90;;;;;;4995184;28;20027;-80
2022/11/27 04:16:50;;;;;;;14.98;8.48;;;-3.70;99.90;;;;;;4977714;28;20080;-79
2022/11/27 04:19:16;;;;;;;14.75;9.57;;;-3.70;99.90;;;;;;4995304;28;20045;-78
2022/11/27 04:21:42;;;;;;;14.38;8.75;;;-3.70;99.90;;;;;;4995899;28;20030;-80
2022/11/27 04:24:07;;;;;;;16.70;9.77;;;-3.60;99.90;;;;;;4994838;28;20038;-80
2022/11/27 04:26:33;;;;;;;18.92;11.43;;;-3.60;99.90;;;;;;4994559;28;20038;-79
2022/11/27 04:28:59;;;;;;;18.33;11.88;;;-3.60;99.90;;;;;;4994492;28;20020;-79
2022/11/27 04:31:25;;;;;;;16.95;9.55;;;-3.60;99.90;;;;;;4998457;28;20035;-77
2022/11/27 04:33:51;;;;;;;14.20;7.85;;;-3.60;99.90;;;;;;5005565;28;20022;-78
2022/11/27 04:36:16;;;;;;;14.30;10.65;;;-3.50;99.90;;;;;;4994420;28;20423;-80
2022/11/27 04:38:42;;;;;;;13.57;9.77;;;-3.60;99.90;;;;;;4994699;28;20031;-79
2022/11/27 04:41:08;;;;;;;11.10;7.30;;;-3.60;99.90;;;;;;4994297;28;20027;-79
2022/11/27 04:43:34;;;;;;;15.77;8.55;;;-3.60;99.90;;;;;;4994079;28;20371;-78
2022/11/27 04:46:00;;;;;;;16.48;9.73;;;-3.60;99.90;;;;;;4994019;28;20111;-80
2022/11/27 04:48:25;;;;;;;13.50;8.55;;;-3.60;99.90;;;;;;4992880;28;20085;-78
2022/11/27 04:50:54;;;;;;;12.43;7.72;;;-3.60;99.90;;;;;;4993923;28;20091;-77
2022/11/27 04:53:20;;;;;;;17.85;9.55;;;-3.50;99.90;;;;;;4997206;28;20073;-79
2022/11/27 04:55:45;;;;;;;17.77;9.32;;;-3.50;99.90;;;;;;4997731;28;20022;-78
2022/11/27 04:58:11;;;;;;;16.83;10.98;;;-3.50;99.90;;;;;;4994197;28;20034;-78
2022/11/27 05:00:37;;;;;;;13.00;8.73;;;-3.50;99.90;;;;;;4994066;28;20030;-79
2022/11/27 05:03:03;;;;;;;18.48;9.00;;;-3.40;99.90;;;;;;4994140;28;20157;-79
2022/11/27 05:05:29;;;;;;;16.73;10.57;;;-3.40;99.90;;;;;;4998843;28;20026;-77
2022/11/27 05:07:54;;;;;;;11.10;8.07;;;-3.40;99.90;;;;;;4993805;28;20022;-79
2022/11/27 05:10:20;;;;;;;10.77;6.80;;;-3.50;99.90;;;;;;4992362;28;20026;-79
2022/11/27 05:12:46;;;;;;;12.88;9.50;;;-3.50;99.90;;;;;;4994139;28;20046;-79
2022/11/27 05:15:12;;;;;;;18.30;8.77;;;-3.50;99.90;;;;;;4993735;28;20034;-79
2022/11/27 05:17:38;;;;;;;16.67;9.55;;;-3.50;99.90;;;;;;4993588;28;20034;-80
2022/11/27 05:20:04;;;;;;;13.93;8.35;;;-3.40;99.90;;;;;;4993323;28;20148;-78
2022/11/27 05:22:30;;;;;;;15.10;8.65;;;-3.40;99.90;;;;;;4993412;28;20030;-80
2022/11/27 05:24:56;;;;;;;14.35;8.35;;;-3.30;99.90;;;;;;4993468;28;20034;-79
2022/11/27 05:27:22;;;;;;;17.63;9.02;;;-3.30;99.90;;;;;;4993477;28;20372;-80
2022/11/27 05:29:47;;;;;;;20.17;10.05;;;-3.30;99.90;;;;;;4993189;28;20072;-78
2022/11/27 05:32:13;;;;;;;14.95;8.30;;;-3.30;99.90;;;;;;4993305;28;20065;-78
2022/11/27 05:34:39;;;;;;;14.98;9.20;;;-3.40;99.90;;;;;;4993560;28;20018;-77
2022/11/27 05:37:05;;;;;;;14.77;9.52;;;-3.40;99.90;;;;;;4989394;28;20034;-79
2022/11/27 05:39:31;;;;;;;17.27;10.60;;;-3.50;99.90;;;;;;4993229;28;20088;-79
2022/11/27 05:41:56;;;;;;;13.73;8.48;;;-3.50;99.90;;;;;;4993424;28;20049;-78
2022/11/27 05:44:22;;;;;;;18.58;10.77;;;-3.50;99.90;;;;;;4993122;28;20026;-79
2022/11/27 05:46:48;;;;;;;21.00;11.60;;;-3.50;99.90;;;;;;4993115;28;20492;-79
2022/11/27 05:49:15;;;;;;;20.00;12.20;;;-3.50;99.90;;;;;;4993387;28;20472;-78
2022/11/27 05:51:42;;;;;;;23.45;12.50;;;-3.40;99.90;;;;;;4994309;28;20034;-77
2022/11/27 05:54:08;;;;;;;21.73;14.57;;;-3.40;99.90;;;;;;4995690;28;20061;-78
2022/11/27 05:56:34;;;;;;;18.75;12.63;;;-3.40;99.90;;;;;;4993043;28;20274;-77
2022/11/27 05:59:00;;;;;;;12.45;9.30;;;-3.40;99.90;;;;;;4993002;28;20018;-78
2022/11/27 06:01:26;;;;;;;16.95;9.50;;;-3.40;99.90;;;;;;4992699;28;20026;-78
2022/11/27 06:03:52;;;;;;;15.05;9.40;;;-3.40;99.90;;;;;;4991466;28;20575;-79
2022/11/27 06:06:19;;;;;;;20.17;10.02;;;-3.40;99.90;;;;;;4992837;28;20030;-78
2022/11/27 06:08:46;;;;;;;14.13;8.90;;;-3.40;99.90;;;;;;4992350;28;20042;-79
2022/11/27 06:11:15;;;;;;;12.20;8.68;;;-3.40;99.90;;;;;;4992508;28;20046;-78
2022/11/27 06:13:41;;;;;;;19.90;11.57;;;-3.30;99.90;;;;;;4991337;28;20038;-77
2022/11/27 06:16:13;;;;;;;20.88;12.55;;;-3.30;99.90;;;;;;4992437;28;20030;-78
2022/11/27 06:18:39;;;;;;;21.25;11.32;;;-3.30;99.90;;;;;;4993114;28;20097;-79
2022/11/27 06:21:10;;;;;;;16.27;11.73;;;-3.20;99.90;;;;;;4991305;28;20168;-78
2022/11/27 06:23:36;;;;;;;13.63;8.63;;;-3.20;99.90;;;;;;4993185;28;20026;-78
2022/11/27 06:26:10;;;;;;;21.00;11.63;;;-3.20;99.90;;;;;;4996277;28;20068;-79
2022/11/27 06:28:36;;;;;;;16.75;9.60;;;-3.20;99.90;;;;;;5001282;28;20026;-79
2022/11/27 06:31:06;;;;;;;21.00;10.88;;;-3.20;99.90;;;;;;4992954;28;20098;-80
2022/11/27 06:33:33;;;;;;;17.55;8.25;;;-3.20;99.90;;;;;;4993358;28;20027;-79
2022/11/27 06:35:59;;;;;;;22.00;13.18;;;-3.20;99.90;;;;;;4993259;28;20018;-78
2022/11/27 06:38:24;;;;;;;21.23;11.48;;;-3.20;99.90;;;;;;4993059;28;20022;-79
2022/11/27 06:40:50;;;;;;;18.20;10.88;;;-3.20;99.90;;;;;;4994742;28;20035;-78
2022/11/27 06:43:16;;;;;;;23.60;11.55;;;-3.10;99.90;;;;;;4992511;28;20023;-79
2022/11/27 06:45:42;;;;;;;30.95;14.73;;;-3.10;99.90;;;;;;4992203;28;20472;-79
2022/11/27 06:48:08;;;;;;;21.45;11.52;;;-3.00;99.90;;;;;;4992519;28;20022;-79
2022/11/27 06:50:33;;;;;;;21.60;13.57;;;-2.90;99.90;;;;;;4992237;28;20033;-79
2022/11/27 06:56:15;;;;;;;22.48;12.05;;;-2.80;99.90;;;;;;4992422;28;20423;-79
2022/11/27 06:58:42;;;;;;;18.17;11.30;;;-2.80;99.90;;;;;;4992237;28;20019;-82
2022/11/27 07:01:12;;;;;;;17.75;10.32;;;-2.80;99.90;;;;;;4992313;28;20341;-80
2022/11/27 07:03:38;;;;;;;18.98;10.52;;;-2.90;99.90;;;;;;4992165;28;20042;-79
2022/11/27 07:06:06;;;;;;;14.52;9.32;;;-2.90;99.90;;;;;;4992145;28;20033;-81
2022/11/27 07:08:33;;;;;;;22.08;11.73;;;-2.90;99.90;;;;;;4992052;28;20488;-80
2022/11/27 07:11:07;;;;;;;11.63;9.65;;;-2.90;99.90;;;;;;4992239;28;20034;-80
2022/11/27 07:13:33;;;;;;;21.10;12.45;;;-2.90;99.90;;;;;;4992195;28;20029;-81
2022/11/27 07:16:06;;;;;;;17.45;11.10;;;-2.80;99.90;;;;;;4992719;28;20075;-80
2022/11/27 07:18:43;;;;;;;15.65;9.90;;;-2.80;99.90;;;;;;4993175;28;20034;-81
2022/11/27 07:21:10;;;;;;;19.73;10.13;;;-2.80;99.90;;;;;;4996158;28;20043;-82
2022/11/27 07:23:36;;;;;;;12.48;7.70;;;-2.80;99.90;;;;;;4995829;28;20062;-81
2022/11/27 07:26:10;;;;;;;21.42;11.80;;;-2.80;99.90;;;;;;4995902;28;20023;-79
2022/11/27 07:28:37;;;;;;;17.85;10.02;;;-2.70;99.90;;;;;;4996460;28;20050;-80
2022/11/27 07:31:03;;;;;;;17.38;10.98;;;-2.70;99.90;;;;;;4995805;28;20392;-79
2022/11/27 07:33:29;;;;;;;14.25;8.65;;;-2.60;99.90;;;;;;4995830;28;20399;-81
2022/11/27 07:36:09;;;;;;;15.95;10.68;;;-2.60;99.90;;;;;;4993442;28;20026;-81
2022/11/27 07:38:35;;;;;;;22.42;13.68;;;-2.70;99.90;;;;;;4993432;28;20031;-79
2022/11/27 07:41:02;;;;;;;15.60;10.80;;;-2.60;99.90;;;;;;4995008;28;20105;-78
2022/11/27 07:43:29;;;;;;;16.88;10.23;;;-2.50;99.90;;;;;;4995873;28;20393;-79
2022/11/27 07:45:55;;;;;;;17.45;10.25;;;-2.40;99.90;;;;;;4995465;28;20088;-80
2022/11/27 07:48:21;;;;;;;16.90;10.52;;;-2.40;99.90;;;;;;4994531;28;20639;-80
2022/11/27 07:50:47;;;;;;;13.63;8.57;;;-2.30;99.90;;;;;;4995055;28;20480;-80
2022/11/27 07:53:13;;;;;;;25.48;13.57;;;-2.30;99.90;;;;;;4995722;28;20034;-79
2022/11/27 07:55:40;;;;;;;20.92;11.98;;;-2.30;99.90;;;;;;4996870;28;20018;-80
2022/11/27 07:58:07;;;;;;;21.50;13.43;;;-2.30;99.90;;;;;;4998158;28;20114;-80
2022/11/27 08:00:34;;;;;;;15.48;10.73;;;-2.30;99.90;;;;;;4996330;28;20101;-81
2022/11/27 08:03:01;;;;;;;13.10;8.43;;;-2.20;99.90;;;;;;4993795;28;20038;-79
2022/11/27 08:05:27;;;;;;;15.75;9.95;;;-2.20;99.90;;;;;;4996101;28;20022;-79
2022/11/27 08:07:56;;;;;;;20.40;11.53;;;-2.20;99.90;;;;;;4998037;28;20026;-80
2022/11/27 08:10:21;;;;;;;17.83;11.80;;;-2.20;99.90;;;;;;4995118;28;20264;-79
2022/11/27 08:12:47;;;;;;;16.85;10.00;;;-2.20;99.90;;;;;;4994963;28;20041;-79
2022/11/27 08:15:13;;;;;;;19.92;11.95;;;-2.20;99.90;;;;;;4994833;28;20022;-79
2022/11/27 08:17:39;;;;;;;17.45;13.07;;;-2.20;99.90;;;;;;4994854;28;20395;-81
2022/11/27 08:20:06;;;;;;;16.88;9.30;;;-2.20;99.90;;;;;;4996533;28;20085;-79
2022/11/27 08:22:32;;;;;;;19.20;12.35;;;-2.20;99.90;;;;;;5001875;28;20042;-79
2022/11/27 08:24:58;;;;;;;17.57;11.07;;;-2.20;99.90;;;;;;4990542;28;20078;-80
2022/11/27 08:27:24;;;;;;;24.17;12.30;;;-2.20;99.90;;;;;;4995374;28;20056;-79
2022/11/27 08:29:50;;;;;;;18.40;11.00;;;-2.10;99.90;;;;;;4993554;28;20053;-78
2022/11/27 08:32:16;;;;;;;15.65;10.55;;;-2.10;99.90;;;;;;4991441;28;20042;-79
2022/11/27 08:34:41;;;;;;;17.08;11.32;;;-2.00;99.90;;;;;;4993841;28;20026;-80
2022/11/27 08:37:07;;;;;;;17.17;12.50;;;-1.90;99.90;;;;;;4994128;28;20069;-80
2022/11/27 08:39:33;;;;;;;17.27;10.13;;;-1.90;99.90;;;;;;4993923;28;20014;-79
2022/11/27 08:41:59;;;;;;;24.55;14.25;;;-1.80;99.90;;;;;;4994473;28;20072;-80
2022/11/27 08:44:25;;;;;;;20.33;12.10;;;-1.80;99.90;;;;;;4993840;28;20022;-81
2022/11/27 08:46:51;;;;;;;16.90;11.48;;;-1.70;99.90;;;;;;4994412;28;20019;-78
2022/11/27 08:49:26;;;;;;;18.08;11.60;;;-1.70;99.90;;;;;;4993967;28;20026;-79
2022/11/27 08:51:52;;;;;;;16.13;10.60;;;-1.80;99.90;;;;;;4994388;28;20034;-81
2022/11/27 08:54:17;;;;;;;19.10;12.55;;;-1.70;99.90;;;;;;4994675;28;20029;-79
2022/11/27 08:56:43;;;;;;;17.60;12.90;;;-1.60;99.90;;;;;;4992452;28;20037;-79
2022/11/27 08:59:09;;;;;;;18.25;10.43;;;-1.50;99.90;;;;;;4994156;28;20065;-79
2022/11/27 09:01:35;;;;;;;22.35;13.13;;;-1.50;99.90;;;;;;4994281;28;20026;-78
2022/11/27 09:04:02;;;;;;;17.15;11.82;;;-1.50;99.90;;;;;;4994950;28;20057;-80
2022/11/27 09:06:30;;;;;;;29.25;18.05;;;-1.50;99.90;;;;;;4994712;28;20023;-81
2022/11/27 09:08:58;;;;;;;21.48;14.82;;;-1.50;99.90;;;;;;4994420;28;20030;-80
2022/11/27 09:11:25;;;;;;;19.85;12.48;;;-1.50;99.90;;;;;;4994215;28;20038;-79
2022/11/27 09:13:51;;;;;;;21.85;12.00;;;-1.50;99.90;;;;;;4994352;28;20021;-79
2022/11/27 09:16:19;;;;;;;22.95;11.93;;;-1.50;99.90;;;;;;4994151;28;20395;-81
2022/11/27 09:18:50;;;;;;;26.90;12.98;;;-1.50;99.90;;;;;;4994005;28;20026;-79
2022/11/27 09:21:18;;;;;;;15.77;10.40;;;-1.40;99.90;;;;;;4992146;28;20026;-78
2022/11/27 09:23:51;;;;;;;15.43;9.80;;;-1.40;99.90;;;;;;4993407;28;20034;-79
2022/11/27 09:26:16;;;;;;;21.10;11.23;;;-1.30;99.90;;;;;;4991825;28;20022;-79
2022/11/27 09:28:43;;;;;;;16.83;10.82;;;-1.30;99.90;;;;;;4993235;28;20372;-78
2022/11/27 09:31:12;;;;;;;17.27;10.88;;;-1.20;99.90;;;;;;4993172;28;20027;-77
2022/11/27 09:33:39;;;;;;;15.50;9.77;;;-1.10;99.90;;;;;;4994003;28;20029;-78
2022/11/27 09:36:06;;;;;;;;;;;-1.10;99.90;;;;;;4993970;28;20392;-80
2022/11/27 09:38:32;;;;;;;24.88;11.73;;;-1.00;99.90;;;;;;4992678;28;20426;-79
2022/11/27 09:41:12;;;;;;;14.13;10.20;;;-1.10;99.90;;;;;;4977274;28;20539;-78
2022/11/27 09:43:51;;;;;;;12.18;7.57;;;-1.00;99.90;;;;;;4990608;28;20015;-78
2022/11/27 09:46:28;;;;;;;14.27;9.35;;;-1.00;99.90;;;;;;4991890;28;20064;-80
2022/11/27 09:48:55;;;;;;;15.43;11.02;;;-1.00;99.90;;;;;;4994021;28;20045;-77
2022/11/27 09:51:36;;;;;;;16.73;9.80;;;-1.00;99.90;;;;;;4986184;28;20046;-82
2022/11/27 09:54:16;;;;;;;15.45;10.40;;;-1.00;99.90;;;;;;5001796;28;20085;-82
2022/11/27 09:56:48;;;;;;;28.67;19.77;;;-1.00;99.90;;;;;;4995018;28;20014;-82
2022/11/27 09:59:21;;;;;;;32.22;23.17;;;-0.90;99.90;;;;;;4996475;28;20460;-81
2022/11/27 10:01:47;;;;;;;23.85;17.10;;;-0.80;99.90;;;;;;4997921;28;20058;-82
2022/11/27 10:04:16;;;;;;;16.65;10.70;;;-0.80;99.90;;;;;;4995368;28;20042;-83
2022/11/27 10:07:13;;;;;;;15.80;11.55;;;-0.70;99.90;;;;;;4993848;28;20380;-80
2022/11/27 10:10:16;;;;;;;14.23;9.20;;;-0.80;99.90;;;;;;4995294;28;20073;-81
2022/11/27 10:12:48;;;;;;;19.48;11.15;;;-0.80;99.90;;;;;;4991149;28;20038;-84
2022/11/27 10:15:30;;;;;;;18.33;10.70;;;-0.70;99.90;;;;;;4993709;28;20030;-81
2022/11/27 10:18:32;;;;;;;18.20;11.90;;;-0.50;99.90;;;;;;4988132;28;20037;-80
2022/11/27 10:21:08;;;;;;;13.70;10.68;;;-0.40;99.90;;;;;;4995723;28;20500;-81
2022/11/27 10:23:34;;;;;;;17.92;12.43;;;-0.40;99.90;;;;;;4994204;28;20018;-79
2022/11/27 10:26:12;;;;;;;19.33;12.50;;;-0.50;99.90;;;;;;4991090;28;20548;-78
2022/11/27 10:28:53;;;;;;;16.13;10.25;;;-0.40;99.90;;;;;;4993512;28;20428;-79
2022/11/27 10:31:39;;;;;;;19.52;10.52;;;-0.40;99.90;;;;;;4993260;28;20034;-79
2022/11/27 10:34:31;;;;;;;18.10;12.18;;;-0.40;99.90;;;;;;4990558;28;20053;-79
2022/11/27 10:37:00;;;;;;;19.10;12.02;;;-0.40;99.90;;;;;;4987589;28;20018;-80
2022/11/27 10:39:39;;;;;;;18.17;11.27;;;-0.30;99.90;;;;;;4992261;28;20463;-79
2022/11/27 10:42:19;;;;;;;20.05;12.18;;;-0.30;99.90;;;;;;4992036;28;20018;-79
2022/11/27 10:45:04;;;;;;;21.10;12.77;;;-0.20;99.90;;;;;;4991925;28;20429;-78
2022/11/27 10:47:31;;;;;;;17.55;12.00;;;-0.20;99.90;;;;;;4991986;28;20091;-78
2022/11/27 10:49:58;;;;;;;18.20;12.77;;;-0.20;99.80;;;;;;4983710;28;20018;-79
2022/11/27 10:52:24;;;;;;;20.10;13.10;;;-0.30;99.80;;;;;;4990497;28;20492;-78
2022/11/27 10:55:03;;;;;;;20.33;12.68;;;-0.30;99.90;;;;;;4995976;28;20438;-80
2022/11/27 10:57:45;;;;;;;18.55;13.82;;;-0.30;99.90;;;;;;4986926;28;20030;-79
2022/11/27 11:00:18;;;;;;;21.33;12.32;;;-0.30;99.80;;;;;;4995911;28;20337;-80
2022/11/27 11:02:45;;;;;;;14.57;10.18;;;-0.30;99.80;;;;;;4994408;28;20050;-80
2022/11/27 11:05:12;;;;;;;16.02;13.18;;;-0.30;99.60;;;;;;4994504;28;20459;-80
2022/11/27 11:07:38;;;;;;;18.90;12.57;;;-0.50;99.10;;;;;;4996070;28;20034;-80
2022/11/27 11:10:29;;;;;;;15.07;10.75;;;-0.60;99.10;;;;;;4996528;28;20030;-81
2022/11/27 11:13:15;;;;;;;18.60;11.32;;;-0.70;99.30;;;;;;4996559;28;20096;-78
2022/11/27 11:16:04;;;;;;;14.25;11.63;;;-0.70;99.50;;;;;;4993305;28;20163;-83
2022/11/27 11:18:34;;;;;;;16.63;9.95;;;-0.60;99.70;;;;;;4995443;28;20125;-80
2022/11/27 11:21:06;;;;;;;15.55;11.55;;;-0.60;99.20;;;;;;4994668;28;20080;-81
2022/11/27 11:23:37;;;;;;;18.65;12.45;;;-0.80;99.30;;;;;;4995422;28;20019;-81
2022/11/27 11:26:24;;;;;;;14.95;10.90;;;-0.80;99.60;;;;;;4995275;28;20108;-79
2022/11/27 11:28:53;;;;;;;16.85;8.48;;;-0.80;99.80;;;;;;4997200;28;20030;-81
2022/11/27 11:31:33;;;;;;;17.13;12.77;;;-0.80;99.30;;;;;;4997798;28;20026;-80
2022/11/27 11:34:02;;;;;;;19.20;12.88;;;-0.90;99.40;;;;;;4994812;28;20080;-80
2022/11/27 11:36:29;;;;;;;18.70;12.43;;;-1.00;99.60;;;;;;4995919;28;20018;-78
2022/11/27 11:38:55;;;;;;;16.90;12.10;;;-1.10;99.80;;;;;;4998587;28;20025;-81
2022/11/27 11:41:23;;;;;;;14.90;9.90;;;-1.10;99.80;;;;;;4996772;28;20605;-80
2022/11/27 11:44:00;;;;;;;22.33;13.77;;;-1.20;99.90;;;;;;4994794;28;20027;-80
2022/11/27 11:46:30;;;;;;;21.35;13.90;;;-1.10;99.90;;;;;;4993740;28;20028;-79
2022/11/27 11:49:21;;;;;;;18.92;13.73;;;-1.10;99.90;;;;;;4994791;28;20046;-79
2022/11/27 11:51:47;;;;;;;22.52;15.88;;;-1.00;99.90;;;;;;4994664;28;20081;-81
2022/11/27 11:54:54;;;;;;;23.58;13.75;;;-1.00;99.90;;;;;;4995517;28;20504;-80
2022/11/27 11:57:56;;;;;;;20.10;13.50;;;-1.00;99.90;;;;;;4982142;28;20042;-80
2022/11/27 12:00:26;;;;;;;16.45;10.43;;;-1.10;99.90;;;;;;4975939;28;20062;-78
2022/11/27 12:03:16;;;;;;;15.25;12.55;;;-1.10;99.90;;;;;;4988367;28;20447;-77
2022/11/27 12:06:05;;;;;;;17.00;13.48;;;-1.20;99.90;;;;;;5002222;28;20547;-80
2022/11/27 12:08:52;;;;;;;22.27;13.38;;;-1.30;99.90;;;;;;4991009;28;20031;-80
2022/11/27 12:11:35;;;;;;;17.67;11.10;;;-1.30;99.90;;;;;;4986754;28;20085;-81
2022/11/27 12:14:19;;;;;;;18.42;12.43;;;-1.40;99.90;;;;;;4986382;28;20034;-81
2022/11/27 12:17:08;;;;;;;16.77;10.13;;;-1.40;99.90;;;;;;4991826;28;20062;-83
2022/11/27 12:19:40;;;;;;;19.67;12.65;;;-1.40;99.90;;;;;;4984443;28;20074;-82
2022/11/27 12:22:21;;;;;;;15.88;9.02;;;-1.40;99.90;;;;;;4982828;28;20034;-83
2022/11/27 12:25:28;;;;;;;22.38;16.02;;;-1.40;99.90;;;;;;4985028;28;20252;-81
2022/11/27 12:28:13;;;;;;;23.55;13.75;;;-1.50;99.90;;;;;;4980897;28;20436;-80
2022/11/27 12:30:45;;;;;;;18.55;13.23;;;-1.50;99.90;;;;;;4980787;28;20038;-81
2022/11/27 12:33:32;;;;;;;18.95;14.45;;;-1.60;99.90;;;;;;4993405;28;20393;-80
2022/11/27 12:36:21;;;;;;;15.85;12.70;;;-1.70;99.90;;;;;;4994779;28;20026;-81
2022/11/27 12:38:47;;;;;;;21.15;11.15;;;-1.70;99.90;;;;;;4994866;28;20027;-80
2022/11/27 12:41:33;;;;;;;26.90;13.32;;;-1.80;99.90;;;;;;4996820;28;20084;-80
2022/11/27 12:43:59;;;;;;;21.90;10.63;;;-1.80;99.90;;;;;;4988789;28;20482;-82
2022/11/27 12:46:36;;;;;;;16.40;10.68;;;-1.80;99.90;;;;;;4995514;28;20010;-82
2022/11/27 12:49:37;;;;;;;17.83;11.55;;;-1.90;99.90;;;;;;4990225;28;20357;-81
2022/11/27 12:52:17;;;;;;;18.10;12.65;;;-1.90;99.90;;;;;;4955999;28;20524;-79
2022/11/27 12:54:54;;;;;;;15.45;11.18;;;-1.90;99.90;;;;;;4991979;28;20057;-80